Flight Track Log - Related Links

Times and Time Zones

All times are in EDT time to prevent confusion due to time zone crossing. See the UPS1121 flight status page for this flight to view local times or setup timezone preferences in your user account.

Time Position Orientation Groundspeed Altitude Reporting Facility
EDT Latitude Longitude Course Direction KTS MPH feet Rate Location/Type
Wed 08:32:59 PM 42.7339 -73.8081 154° Southeast 152 175 1,700  Level Boston Center
Wed 08:34:07 PM 42.6822 -73.7731 154° Southeast 231 266 4,000 2,531 Climbing Boston Center
Wed 08:35:07 PM 42.6372 -73.6961 128° Southeast 241 277 7,100 3,100 Climbing Boston Center
Wed 08:36:07 PM 42.5903 -73.6161 129° Southeast 288 331 10,200 1,950 Climbing Boston Center
Wed 08:37:07 PM 42.5267 -73.5050 128° Southeast 323 372 11,000 364 Climbing Boston Center
Wed 08:38:19 PM 42.4692 -73.4139 131° Southeast 347 399 11,000  Level Boston Center
Wed 08:39:19 PM 42.3783 -73.2889 135° Southeast 358 412 11,000 -100 Level Boston Center
Wed 08:40:19 PM 42.3103 -73.1925 134° Southeast 353 406 10,800 -550 Descending Boston Center
Wed 08:41:19 PM 42.2483 -73.1075 135° Southeast 340 391 9,900 -1,150 Descending Boston Center
Wed 08:42:19 PM 42.1925 -73.0200 131° Southeast 315 362 8,500 -1,500 Descending Boston Center
Wed 08:43:19 PM 42.1764 -72.9136 102° East 287 330 6,900 -1,500 Descending Boston Center
Wed 08:44:19 PM 42.1558 -72.8097 105° East 282 325 5,500 -1,550 Descending Boston Center
Wed 08:45:19 PM 42.1311 -72.7144 109° East 277 319 3,800 -1,400 Descending Boston Center
Wed 08:46:19 PM 42.0917 -72.6358 124° Southeast 257 296 2,700 -850 Descending Boston Center
Wed 08:47:19 PM 42.0586 -72.5744 126° Southeast 223 257 2,100 -300 Descending Boston Center
Wed 08:48:19 PM 42.0253 -72.5742 180° South 133 153 2,100 -350 Level Boston Center
Wed 08:49:19 PM 41.9939 -72.6161 225° Southwest 133 153 1,400 -650 Descending Boston Center
Wed 08:50:19 PM 41.9750 -72.6439 228° Southwest 132 152 800 -550 Descending Boston Center
Wed 08:51:19 PM 41.9500 -72.6775 225° Southwest 124 143 300 -500 Descending Boston Center
Wed 08:53:00 PM 41.9333 -72.6833 180° South  Level FlightAware Approximate
Wed 09:00:00 PM 41.9392 -72.6834 180° South  Level Estimated
Wed 09:01:00 PM 41.9333 -72.6833 180° South  Level FlightAware Approximate
Wed 09:02:00 PM 41.9392 -72.6834 180° South  Level Estimated

Login

Don't have an account? Register now (free) for customized features, flight alerts, and more!